createdAt,value
2019-04-03T00:00:19.514Z,270.00
2019-04-03T00:01:19.550Z,270.35
2019-04-03T00:02:19.511Z,270.00
2019-04-03T00:03:19.513Z,243.06
2019-04-03T00:04:19.563Z,271.24
2019-04-03T00:05:19.538Z,268.77
2019-04-03T00:06:19.521Z,270.00
2019-04-03T00:07:19.503Z,258.92
2019-04-03T00:08:19.516Z,326.71
2019-04-03T00:09:19.525Z,180.00
2019-04-03T00:10:19.518Z,188.10
2019-04-03T00:11:19.522Z,253.27
2019-04-03T00:12:19.530Z,224.42
2019-04-03T00:13:19.497Z,175.12
2019-04-03T00:14:19.547Z,135.00
2019-04-03T00:15:19.585Z,135.00
2019-04-03T00:16:19.517Z,269.17
2019-04-03T00:17:19.553Z,248.95
2019-04-03T00:18:19.526Z,135.00
2019-04-03T00:19:19.506Z,69.15
2019-04-03T00:20:19.491Z,94.24
2019-04-03T00:21:20.244Z,131.11
2019-04-03T00:22:21.126Z,90.00
2019-04-03T00:23:20.596Z,89.13
2019-04-03T00:24:22.228Z,232.00
2019-04-03T00:25:20.597Z,140.27
2019-04-03T00:26:20.477Z,90.00
2019-04-03T00:27:21.952Z,103.35
2019-04-03T00:28:20.728Z,93.96
2019-04-03T00:29:20.697Z,90.00
2019-04-03T00:30:21.869Z,87.29
2019-04-03T00:31:19.675Z,273.84
2019-04-03T00:32:19.533Z,90.00
2019-04-03T00:33:19.548Z,90.00
2019-04-03T00:34:19.509Z,90.00
2019-04-03T00:35:19.529Z,115.76
2019-04-03T00:36:19.564Z,135.00
2019-04-03T00:37:19.528Z,144.05
2019-04-03T00:38:19.527Z,180.00
2019-04-03T00:39:19.546Z,180.00
2019-04-03T00:40:19.625Z,180.00
2019-04-03T00:41:19.544Z,180.00
2019-04-03T00:42:19.527Z,180.00
2019-04-03T00:43:19.525Z,180.00
2019-04-03T00:44:19.536Z,180.00
2019-04-03T00:45:19.552Z,180.00
2019-04-03T00:46:19.683Z,180.00
2019-04-03T00:47:19.561Z,180.00
2019-04-03T00:48:19.677Z,180.00
2019-04-03T00:49:19.532Z,180.00
2019-04-03T00:50:19.528Z,205.00
2019-04-03T00:51:19.557Z,304.58
2019-04-03T00:52:19.550Z,315.00
2019-04-03T00:53:19.568Z,315.00
2019-04-03T00:54:19.576Z,315.00
2019-04-03T00:55:19.531Z,315.00
2019-04-03T00:56:19.544Z,315.00
2019-04-03T00:57:19.569Z,315.00
2019-04-03T00:58:19.553Z,315.00
2019-04-03T00:59:19.665Z,315.00
2019-04-03T01:00:19.585Z,315.00
2019-04-03T01:01:19.545Z,315.00
2019-04-03T01:02:19.582Z,315.00
2019-04-03T01:03:19.635Z,336.56
2019-04-03T01:04:19.572Z,0.00
2019-04-03T01:05:19.580Z,286.88
2019-04-03T01:06:19.593Z,315.00
2019-04-03T01:07:19.592Z,326.23
2019-04-03T01:08:19.612Z,90.00
2019-04-03T01:09:19.656Z,158.67
2019-04-03T01:10:19.650Z,225.00
2019-04-03T01:11:19.650Z,225.00
2019-04-03T01:12:19.657Z,90.00
2019-04-03T01:13:19.668Z,137.53
2019-04-03T01:14:19.683Z,180.00
2019-04-03T01:15:19.733Z,0.00
2019-04-03T01:16:19.723Z,331.16
2019-04-03T01:17:19.725Z,315.00
2019-04-03T01:18:19.867Z,315.00
2019-04-03T01:19:19.739Z,315.00
2019-04-03T01:20:19.786Z,315.00
2019-04-03T01:21:19.857Z,315.00
2019-04-03T01:22:19.793Z,315.00
2019-04-03T01:23:19.759Z,260.87
2019-04-03T01:24:19.836Z,315.00
2019-04-03T01:25:19.806Z,315.00
2019-04-03T01:26:19.796Z,315.00
2019-04-03T01:27:19.855Z,24.61
2019-04-03T01:28:19.892Z,130.54
2019-04-03T01:29:19.880Z,90.00
2019-04-03T01:30:19.899Z,104.01
2019-04-03T01:31:19.881Z,178.11
2019-04-03T01:32:20.011Z,225.00
2019-04-03T01:33:20.049Z,197.00
2019-04-03T01:34:19.925Z,135.00
2019-04-03T01:35:20.009Z,134.46
2019-04-03T01:36:20.105Z,90.00
2019-04-03T01:37:19.951Z,114.54
2019-04-03T01:38:19.985Z,139.17
2019-04-03T01:39:21.020Z,180.00
2019-04-03T01:40:20.888Z,271.81
2019-04-03T01:41:21.223Z,315.00
2019-04-03T01:42:22.172Z,135.00
2019-04-03T01:43:20.011Z,135.00
2019-04-03T01:44:20.034Z,56.07
2019-04-03T01:45:20.088Z,38.82
2019-04-03T01:46:20.272Z,135.00
2019-04-03T01:47:20.094Z,95.05
2019-04-03T01:48:20.094Z,90.00
2019-04-03T01:49:20.076Z,90.00
2019-04-03T01:50:20.104Z,35.85
2019-04-03T01:51:20.149Z,284.79
2019-04-03T01:52:20.132Z,292.00
2019-04-03T01:53:20.129Z,270.00
2019-04-03T01:54:20.159Z,241.65
2019-04-03T01:55:20.155Z,288.55
2019-04-03T01:56:20.174Z,271.34
2019-04-03T01:57:20.214Z,270.00
2019-04-03T01:58:20.304Z,270.00
2019-04-03T01:59:20.222Z,278.24
2019-04-03T02:00:20.267Z,310.68
2019-04-03T02:01:20.226Z,286.39
2019-04-03T02:02:20.245Z,269.50
2019-04-03T02:03:20.287Z,270.00
2019-04-03T02:04:20.281Z,264.37
2019-04-03T02:05:20.272Z,278.38
2019-04-03T02:06:20.301Z,303.35
2019-04-03T02:07:20.293Z,263.50
2019-04-03T02:08:20.311Z,274.00
2019-04-03T02:09:20.354Z,274.60
2019-04-03T02:10:20.351Z,281.26
2019-04-03T02:11:20.365Z,297.51
2019-04-03T02:12:20.533Z,307.44
2019-04-03T02:13:21.887Z,272.40
2019-04-03T02:14:21.768Z,272.02
2019-04-03T02:15:21.554Z,276.06
2019-04-03T02:16:21.414Z,278.33
2019-04-03T02:17:21.841Z,268.86
2019-04-03T02:18:20.509Z,265.37
2019-04-03T02:19:20.423Z,270.00
2019-04-03T02:20:20.446Z,289.71
2019-04-03T02:21:20.835Z,66.13
2019-04-03T02:22:20.489Z,148.63
2019-04-03T02:23:20.495Z,265.58
2019-04-03T02:24:20.503Z,180.00
2019-04-03T02:25:20.518Z,141.71
2019-04-03T02:26:20.707Z,301.25
2019-04-03T02:27:20.627Z,278.51
2019-04-03T02:28:20.559Z,270.00
2019-04-03T02:29:20.571Z,270.00
2019-04-03T02:30:20.638Z,270.68
2019-04-03T02:31:20.600Z,275.25
2019-04-03T02:32:23.271Z,283.24
2019-04-03T02:33:20.810Z,299.43
2019-04-03T02:34:20.609Z,150.27
2019-04-03T02:35:20.587Z,103.59
2019-04-03T02:36:20.607Z,94.96
2019-04-03T02:37:20.632Z,135.00
2019-04-03T02:38:22.557Z,135.00
2019-04-03T02:39:20.625Z,135.00
2019-04-03T02:40:20.924Z,135.00
2019-04-03T02:41:20.597Z,110.97
2019-04-03T02:42:20.621Z,90.00
2019-04-03T02:43:20.839Z,90.00
2019-04-03T02:44:20.599Z,133.21
2019-04-03T02:45:23.372Z,137.23
2019-04-03T02:46:20.628Z,225.00
2019-04-03T02:47:20.606Z,202.64
2019-04-03T02:48:20.685Z,135.00
2019-04-03T02:49:20.894Z,135.00
2019-04-03T02:50:20.627Z,135.00
2019-04-03T02:51:20.682Z,128.02
2019-04-03T02:52:24.172Z,90.00
2019-04-03T02:53:20.652Z,90.00
2019-04-03T02:54:20.628Z,90.00
2019-04-03T02:55:20.619Z,90.00
2019-04-03T02:56:20.627Z,90.00
2019-04-03T02:57:20.838Z,90.00
2019-04-03T02:58:22.247Z,90.00
2019-04-03T02:59:20.625Z,90.00
2019-04-03T03:00:20.646Z,90.00
2019-04-03T03:01:20.715Z,90.00
2019-04-03T03:02:20.607Z,90.00
2019-04-03T03:03:20.635Z,90.00
2019-04-03T03:04:21.979Z,90.00
2019-04-03T03:05:20.606Z,90.00
2019-04-03T03:06:20.653Z,90.00
2019-04-03T03:07:20.617Z,90.00
2019-04-03T03:08:23.009Z,90.00
2019-04-03T03:09:20.750Z,90.00
2019-04-03T03:10:20.710Z,90.00
2019-04-03T03:11:23.255Z,90.00
2019-04-03T03:12:20.636Z,90.00
2019-04-03T03:13:20.603Z,90.00
2019-04-03T03:14:20.625Z,90.00
2019-04-03T03:15:20.652Z,90.00
2019-04-03T03:16:20.636Z,90.00
2019-04-03T03:17:22.531Z,90.00
2019-04-03T03:18:20.646Z,90.00
2019-04-03T03:19:20.612Z,90.00
2019-04-03T03:20:20.643Z,90.00
2019-04-03T03:21:20.664Z,90.00
2019-04-03T03:22:20.932Z,90.00
2019-04-03T03:23:23.422Z,90.00
2019-04-03T03:24:20.801Z,90.00
2019-04-03T03:25:20.635Z,90.00
2019-04-03T03:26:20.748Z,90.00
2019-04-03T03:27:20.676Z,90.00
2019-04-03T03:28:20.636Z,90.00
2019-04-03T03:29:24.870Z,90.00
2019-04-03T03:30:36.174Z,90.00
2019-04-03T03:31:44.354Z,90.00
2019-04-03T03:32:29.089Z,90.00
2019-04-03T03:33:29.988Z,90.00
2019-04-03T03:34:45.210Z,90.00
2019-04-03T03:35:28.934Z,90.00
2019-04-03T03:36:24.482Z,90.00
2019-04-03T03:37:20.995Z,90.00
2019-04-03T03:38:20.664Z,69.14
2019-04-03T03:39:20.675Z,0.00
2019-04-03T03:40:20.649Z,38.46
2019-04-03T03:41:22.690Z,90.00
2019-04-03T03:42:20.721Z,90.00
2019-04-03T03:43:20.787Z,90.00
2019-04-03T03:44:20.650Z,90.00
2019-04-03T03:45:21.443Z,90.00
2019-04-03T03:46:20.654Z,90.00
2019-04-03T03:47:20.669Z,90.00
2019-04-03T03:48:20.830Z,128.01
2019-04-03T03:49:20.644Z,135.00
2019-04-03T03:50:23.901Z,135.00
2019-04-03T03:51:20.729Z,135.00
2019-04-03T03:52:20.655Z,135.00
2019-04-03T03:53:20.680Z,135.00
2019-04-03T03:54:20.672Z,135.00
2019-04-03T03:55:22.790Z,135.00
2019-04-03T03:56:20.673Z,135.00
2019-04-03T03:57:20.699Z,135.00
2019-04-03T03:58:20.667Z,94.73
2019-04-03T03:59:20.663Z,90.00
2019-04-03T04:00:23.244Z,90.00
2019-04-03T04:01:20.893Z,90.00
2019-04-03T04:02:20.663Z,90.00
2019-04-03T04:03:20.694Z,90.00
2019-04-03T04:04:20.663Z,90.00
2019-04-03T04:05:22.837Z,90.00
2019-04-03T04:06:20.696Z,90.00
2019-04-03T04:07:20.661Z,90.00
2019-04-03T04:08:20.707Z,90.00
2019-04-03T04:09:20.721Z,90.00
2019-04-03T04:10:24.005Z,90.00
2019-04-03T04:11:20.928Z,90.00
2019-04-03T04:12:21.016Z,100.36
2019-04-03T04:13:20.641Z,90.00
2019-04-03T04:14:22.827Z,116.68
2019-04-03T04:15:20.695Z,135.00
2019-04-03T04:16:21.106Z,135.00
2019-04-03T04:17:20.926Z,135.00
2019-04-03T04:18:24.022Z,135.00
2019-04-03T04:19:20.674Z,135.00
2019-04-03T04:20:20.946Z,135.00
2019-04-03T04:21:20.830Z,135.00
2019-04-03T04:22:20.700Z,135.00
2019-04-03T04:23:23.013Z,135.00
2019-04-03T04:24:20.706Z,135.00
2019-04-03T04:25:20.667Z,135.00
2019-04-03T04:26:20.682Z,135.00
2019-04-03T04:27:20.705Z,135.00
2019-04-03T04:28:20.694Z,135.00
2019-04-03T04:29:20.681Z,95.75
2019-04-03T04:30:20.852Z,95.26
2019-04-03T04:31:20.671Z,135.00
2019-04-03T04:32:20.669Z,96.77
2019-04-03T04:33:20.834Z,90.00
2019-04-03T04:34:20.692Z,90.00
2019-04-03T04:35:22.031Z,90.00
2019-04-03T04:36:23.398Z,90.00
2019-04-03T04:37:20.679Z,90.00
2019-04-03T04:38:20.896Z,90.00
2019-04-03T04:39:20.716Z,90.00
2019-04-03T04:40:20.712Z,90.00
2019-04-03T04:41:20.684Z,90.00
2019-04-03T04:42:20.741Z,90.00
2019-04-03T04:43:20.656Z,90.00
2019-04-03T04:44:20.686Z,90.00
2019-04-03T04:45:20.776Z,90.00
2019-04-03T04:46:20.675Z,90.00
2019-04-03T04:47:20.742Z,101.57
2019-04-03T04:48:21.327Z,128.13
2019-04-03T04:49:22.351Z,90.00
2019-04-03T04:50:20.814Z,131.68
2019-04-03T04:51:20.776Z,270.00
2019-04-03T04:52:20.682Z,270.00
2019-04-03T04:53:20.701Z,270.00
2019-04-03T04:54:20.698Z,270.00
2019-04-03T04:55:20.681Z,270.00
2019-04-03T04:56:20.714Z,270.00
2019-04-03T04:57:20.790Z,270.00
2019-04-03T04:58:20.700Z,270.00
2019-04-03T04:59:20.739Z,270.00
2019-04-03T05:00:20.783Z,270.00
2019-04-03T05:01:20.675Z,270.00
2019-04-03T05:02:20.717Z,270.00
2019-04-03T05:03:21.821Z,90.00
2019-04-03T05:04:20.704Z,90.00
2019-04-03T05:05:20.704Z,90.00
2019-04-03T05:06:20.729Z,90.00
2019-04-03T05:07:20.701Z,90.00
2019-04-03T05:08:20.708Z,90.00
2019-04-03T05:09:20.759Z,92.41
2019-04-03T05:10:20.687Z,135.00
2019-04-03T05:11:20.714Z,135.00
2019-04-03T05:12:20.743Z,135.00
2019-04-03T05:13:20.694Z,135.00
2019-04-03T05:14:20.891Z,135.00
2019-04-03T05:15:23.474Z,135.00
2019-04-03T05:16:20.958Z,123.22
2019-04-03T05:17:20.777Z,27.82
2019-04-03T05:18:20.725Z,46.98
2019-04-03T05:19:20.707Z,90.00
2019-04-03T05:20:20.728Z,90.00
2019-04-03T05:21:21.717Z,93.95
2019-04-03T05:22:23.217Z,90.00
2019-04-03T05:23:20.771Z,90.00
2019-04-03T05:24:20.882Z,270.00
2019-04-03T05:25:20.717Z,90.00
2019-04-03T05:26:21.543Z,90.00
2019-04-03T05:27:20.755Z,90.00
2019-04-03T05:28:20.725Z,90.00
2019-04-03T05:29:20.752Z,90.00
2019-04-03T05:30:21.045Z,90.00
2019-04-03T05:31:20.721Z,90.00
2019-04-03T05:32:20.916Z,90.00
2019-04-03T05:33:20.751Z,90.00
2019-04-03T05:34:20.705Z,131.74
2019-04-03T05:35:21.244Z,135.00
2019-04-03T05:36:20.796Z,135.00
2019-04-03T05:37:20.908Z,135.00
2019-04-03T05:38:22.503Z,135.00
2019-04-03T05:39:23.465Z,118.87
2019-04-03T05:40:20.706Z,121.66
2019-04-03T05:41:20.723Z,95.28
2019-04-03T05:42:20.727Z,90.00
2019-04-03T05:43:20.738Z,90.00
2019-04-03T05:44:23.225Z,90.00
2019-04-03T05:45:20.752Z,90.00
2019-04-03T05:46:20.721Z,90.00
2019-04-03T05:47:20.740Z,90.00
2019-04-03T05:48:20.743Z,90.00
2019-04-03T05:49:20.735Z,90.00
2019-04-03T05:50:20.768Z,90.00
2019-04-03T05:51:20.751Z,90.00
2019-04-03T05:52:20.732Z,90.00
2019-04-03T05:53:20.760Z,115.59
2019-04-03T05:54:20.748Z,135.00
2019-04-03T05:55:20.933Z,135.00
2019-04-03T05:56:20.758Z,135.00
2019-04-03T05:57:20.775Z,135.00
2019-04-03T05:58:20.734Z,135.00
2019-04-03T05:59:20.742Z,135.00
2019-04-03T06:00:20.762Z,135.00
2019-04-03T06:01:20.739Z,108.05
2019-04-03T06:02:21.996Z,90.00
2019-04-03T06:03:24.695Z,90.00
2019-04-03T06:04:20.737Z,120.10
2019-04-03T06:05:20.757Z,135.00
2019-04-03T06:06:20.789Z,135.00
2019-04-03T06:07:20.951Z,135.00
2019-04-03T06:08:20.777Z,135.00
2019-04-03T06:09:22.368Z,135.00
2019-04-03T06:10:20.743Z,135.00
2019-04-03T06:11:21.075Z,135.00
2019-04-03T06:12:20.876Z,135.00
2019-04-03T06:13:21.033Z,135.00
2019-04-03T06:14:23.199Z,135.00
2019-04-03T06:15:22.065Z,135.00
2019-04-03T06:16:23.404Z,135.00
2019-04-03T06:17:20.761Z,135.00
2019-04-03T06:18:20.834Z,135.00
2019-04-03T06:19:20.770Z,135.00
2019-04-03T06:20:20.804Z,135.00
2019-04-03T06:21:21.167Z,130.44
2019-04-03T06:22:21.988Z,90.00
2019-04-03T06:23:21.418Z,90.00
2019-04-03T06:24:22.286Z,90.00
2019-04-03T06:25:20.815Z,90.00
2019-04-03T06:26:20.783Z,90.00
2019-04-03T06:27:20.800Z,90.00
2019-04-03T06:28:20.750Z,90.00
2019-04-03T06:29:20.797Z,90.00
2019-04-03T06:30:20.897Z,90.00
2019-04-03T06:31:20.768Z,111.34
2019-04-03T06:32:23.725Z,135.00
2019-04-03T06:33:20.765Z,135.00
2019-04-03T06:34:20.758Z,135.00
2019-04-03T06:35:20.772Z,135.00
2019-04-03T06:36:20.793Z,135.00
2019-04-03T06:37:22.218Z,135.00
2019-04-03T06:38:20.783Z,108.12
2019-04-03T06:39:23.423Z,90.00
2019-04-03T06:40:20.765Z,99.25
2019-04-03T06:41:20.784Z,135.00
2019-04-03T06:42:21.025Z,135.00
2019-04-03T06:43:20.784Z,135.00
2019-04-03T06:44:22.692Z,132.85
2019-04-03T06:45:20.808Z,90.00
2019-04-03T06:46:20.751Z,90.00
2019-04-03T06:47:20.783Z,90.00
2019-04-03T06:48:20.788Z,94.37
2019-04-03T06:49:20.775Z,90.00
2019-04-03T06:50:20.804Z,106.74
2019-04-03T06:51:20.803Z,90.00
2019-04-03T06:52:21.504Z,90.00
2019-04-03T06:53:20.867Z,90.00
2019-04-03T06:54:20.933Z,90.00
2019-04-03T06:55:20.843Z,104.09
2019-04-03T06:56:20.872Z,135.00
2019-04-03T06:57:20.873Z,135.00
2019-04-03T06:58:20.848Z,100.75
2019-04-03T06:59:20.901Z,102.59
2019-04-03T07:00:20.909Z,90.00
2019-04-03T07:01:20.882Z,90.00
2019-04-03T07:02:20.929Z,81.83
2019-04-03T07:03:22.792Z,45.00
2019-04-03T07:04:21.363Z,57.01
2019-04-03T07:05:20.954Z,173.14
2019-04-03T07:06:20.963Z,101.11
2019-04-03T07:07:32.590Z,135.00
2019-04-03T07:08:30.102Z,102.11
2019-04-03T07:09:22.814Z,90.00
2019-04-03T07:10:25.744Z,90.00
2019-04-03T07:11:23.788Z,90.00
2019-04-03T07:12:21.006Z,270.00
2019-04-03T07:13:21.100Z,328.84
2019-04-03T07:14:21.280Z,31.48
2019-04-03T07:15:22.364Z,320.51
2019-04-03T07:16:20.966Z,305.01
2019-04-03T07:17:20.991Z,316.44
2019-04-03T07:18:20.991Z,320.94
2019-04-03T07:19:20.985Z,294.07
2019-04-03T07:20:21.256Z,284.56
2019-04-03T07:21:22.754Z,283.97
2019-04-03T07:22:20.999Z,265.11
2019-04-03T07:23:21.018Z,295.08
2019-04-03T07:24:21.042Z,286.96
2019-04-03T07:25:21.048Z,273.13
2019-04-03T07:26:21.080Z,329.04
2019-04-03T07:27:21.172Z,316.52
2019-04-03T07:28:21.063Z,310.34
2019-04-03T07:29:21.097Z,308.51
2019-04-03T07:30:21.756Z,314.22
2019-04-03T07:31:23.247Z,296.93
2019-04-03T07:32:21.143Z,268.63
2019-04-03T07:33:21.160Z,289.68
2019-04-03T07:34:21.116Z,284.18
2019-04-03T07:35:21.110Z,271.31
2019-04-03T07:36:21.155Z,275.20
2019-04-03T07:37:21.128Z,313.18
2019-04-03T07:38:21.830Z,280.50
2019-04-03T07:39:21.128Z,286.37
2019-04-03T07:40:21.410Z,282.63
2019-04-03T07:41:23.309Z,286.45
2019-04-03T07:42:24.324Z,288.50
2019-04-03T07:43:21.107Z,289.22
2019-04-03T07:44:21.161Z,277.67
2019-04-03T07:45:21.156Z,316.61
2019-04-03T07:46:21.107Z,294.75
2019-04-03T07:47:21.152Z,323.96
2019-04-03T07:48:21.136Z,303.89
2019-04-03T07:49:21.291Z,284.87
2019-04-03T07:50:21.161Z,292.09
2019-04-03T07:51:21.139Z,291.79
2019-04-03T07:52:21.113Z,272.05
2019-04-03T07:53:21.109Z,296.16
2019-04-03T07:54:22.008Z,341.58
2019-04-03T07:55:22.145Z,345.69
2019-04-03T07:56:21.292Z,334.20
2019-04-03T07:57:21.293Z,311.13
2019-04-03T07:58:21.118Z,307.14
2019-04-03T07:59:21.153Z,289.61
2019-04-03T08:00:21.164Z,297.23
2019-04-03T08:01:21.143Z,304.46
2019-04-03T08:02:21.230Z,292.30
2019-04-03T08:03:21.619Z,294.19
2019-04-03T08:04:21.989Z,285.78
2019-04-03T08:05:21.141Z,284.18
2019-04-03T08:06:21.170Z,248.35
2019-04-03T08:07:21.153Z,83.42
2019-04-03T08:08:21.465Z,320.54
2019-04-03T08:09:21.438Z,287.80
2019-04-03T08:10:21.119Z,284.35
2019-04-03T08:11:21.176Z,287.78
2019-04-03T08:12:21.193Z,311.92
2019-04-03T08:13:21.155Z,289.61
2019-04-03T08:14:21.254Z,347.49
2019-04-03T08:15:21.153Z,315.00
2019-04-03T08:16:21.156Z,311.34
2019-04-03T08:17:21.193Z,93.04
2019-04-03T08:18:21.839Z,107.78
2019-04-03T08:19:22.982Z,95.04
2019-04-03T08:20:21.207Z,187.59
2019-04-03T08:21:21.179Z,198.81
2019-04-03T08:22:21.304Z,102.12
2019-04-03T08:23:21.159Z,119.38
2019-04-03T08:24:21.182Z,54.96
2019-04-03T08:25:21.163Z,278.62
2019-04-03T08:26:21.198Z,170.09
2019-04-03T08:27:23.353Z,120.87
2019-04-03T08:28:21.174Z,135.88
2019-04-03T08:29:21.168Z,108.94
2019-04-03T08:30:21.309Z,92.94
2019-04-03T08:31:21.179Z,122.46
2019-04-03T08:32:21.193Z,141.76
2019-04-03T08:33:25.602Z,104.09
2019-04-03T08:34:21.167Z,60.11
2019-04-03T08:35:23.064Z,4.95
2019-04-03T08:36:25.290Z,101.76
2019-04-03T08:37:29.748Z,91.80
2019-04-03T08:38:21.546Z,103.56
2019-04-03T08:39:21.403Z,106.84
2019-04-03T08:40:21.194Z,94.23
2019-04-03T08:41:22.141Z,329.52
2019-04-03T08:42:21.207Z,50.77
2019-04-03T08:43:21.194Z,327.84
2019-04-03T08:44:21.344Z,44.99
2019-04-03T08:45:22.114Z,271.52
2019-04-03T08:46:21.171Z,307.47
2019-04-03T08:47:21.202Z,282.55
2019-04-03T08:48:21.218Z,258.98
2019-04-03T08:49:21.313Z,95.17
2019-04-03T08:50:21.316Z,94.11
2019-04-03T08:51:21.211Z,182.10
2019-04-03T08:52:21.161Z,269.49
2019-04-03T08:53:21.211Z,143.62
2019-04-03T08:54:21.210Z,114.83
2019-04-03T08:55:21.195Z,254.99
2019-04-03T08:56:21.262Z,336.68
2019-04-03T08:57:21.180Z,94.31
2019-04-03T08:58:22.114Z,129.89
2019-04-03T08:59:21.526Z,69.63
2019-04-03T09:00:21.238Z,45.40
2019-04-03T09:01:21.213Z,117.08
2019-04-03T09:02:21.258Z,69.93
2019-04-03T09:03:21.207Z,110.88
2019-04-03T09:04:21.194Z,106.91
2019-04-03T09:05:21.265Z,97.42
2019-04-03T09:06:22.380Z,94.18
2019-04-03T09:07:21.489Z,95.92
2019-04-03T09:08:21.590Z,95.98
2019-04-03T09:09:21.284Z,144.70
2019-04-03T09:10:21.333Z,117.79
2019-04-03T09:11:21.304Z,94.94
2019-04-03T09:12:21.309Z,93.67
2019-04-03T09:13:23.345Z,106.42
2019-04-03T09:14:21.382Z,100.10
2019-04-03T09:15:21.551Z,92.44
2019-04-03T09:16:21.297Z,101.41
2019-04-03T09:17:21.280Z,90.00
2019-04-03T09:18:21.329Z,92.06
2019-04-03T09:19:21.469Z,114.23
2019-04-03T09:20:21.340Z,149.34
2019-04-03T09:21:21.705Z,345.33
2019-04-03T09:22:22.186Z,262.55
2019-04-03T09:23:21.415Z,90.00
2019-04-03T09:24:21.597Z,81.60
2019-04-03T09:25:21.457Z,105.22
2019-04-03T09:26:21.345Z,111.38
2019-04-03T09:27:21.393Z,345.51
2019-04-03T09:28:21.588Z,125.57
2019-04-03T09:29:21.340Z,345.97
2019-04-03T09:30:21.644Z,205.28
2019-04-03T09:31:21.329Z,300.53
2019-04-03T09:32:22.751Z,273.53
2019-04-03T09:33:22.929Z,309.86
2019-04-03T09:34:21.334Z,90.39
2019-04-03T09:35:21.344Z,100.09
2019-04-03T09:36:21.511Z,101.73
2019-04-03T09:37:21.352Z,93.53
2019-04-03T09:38:21.386Z,59.74
2019-04-03T09:39:21.695Z,156.35
2019-04-03T09:40:21.447Z,99.39
2019-04-03T09:41:21.536Z,123.68
2019-04-03T09:42:21.823Z,94.39
2019-04-03T09:43:22.234Z,117.33
2019-04-03T09:44:24.249Z,90.00
2019-04-03T09:45:21.383Z,115.07
2019-04-03T09:46:21.392Z,278.23
2019-04-03T09:47:21.360Z,298.17
2019-04-03T09:48:21.354Z,313.03
2019-04-03T09:49:21.367Z,99.67
2019-04-03T09:50:22.592Z,103.94
2019-04-03T09:51:22.799Z,91.38
2019-04-03T09:52:23.137Z,102.64
2019-04-03T09:53:21.345Z,134.63
2019-04-03T09:54:21.363Z,120.64
2019-04-03T09:55:21.349Z,122.83
2019-04-03T09:56:21.392Z,163.22
2019-04-03T09:57:21.368Z,122.92
2019-04-03T09:58:21.552Z,93.88
2019-04-03T09:59:21.366Z,100.65
2019-04-03T10:00:21.625Z,102.68
2019-04-03T10:01:21.769Z,93.64
2019-04-03T10:02:21.425Z,89.06
2019-04-03T10:03:23.469Z,95.17
2019-04-03T10:04:21.570Z,100.45
2019-04-03T10:05:21.638Z,94.79
2019-04-03T10:06:21.455Z,111.00
2019-04-03T10:07:21.754Z,113.10
2019-04-03T10:08:21.590Z,95.13
2019-04-03T10:09:21.532Z,93.12
2019-04-03T10:10:21.477Z,102.48
2019-04-03T10:11:21.494Z,120.07
2019-04-03T10:12:22.708Z,138.68
2019-04-03T10:13:24.514Z,285.46
2019-04-03T10:14:21.709Z,131.68
2019-04-03T10:15:21.921Z,348.72
2019-04-03T10:16:21.505Z,131.48
2019-04-03T10:17:21.513Z,126.79
2019-04-03T10:18:22.176Z,248.21
2019-04-03T10:19:21.533Z,105.52
2019-04-03T10:20:21.563Z,117.82
2019-04-03T10:21:21.549Z,139.98
2019-04-03T10:22:23.758Z,118.28
2019-04-03T10:23:21.535Z,93.75
2019-04-03T10:24:21.550Z,102.04
2019-04-03T10:25:21.585Z,93.89
2019-04-03T10:26:21.583Z,98.02
2019-04-03T10:27:21.583Z,95.09
2019-04-03T10:28:21.538Z,108.06
2019-04-03T10:29:21.897Z,102.52
2019-04-03T10:30:22.371Z,97.21
2019-04-03T10:31:23.377Z,100.25
2019-04-03T10:32:21.570Z,101.49
2019-04-03T10:33:21.544Z,89.26
2019-04-03T10:34:21.531Z,97.87
2019-04-03T10:35:21.635Z,104.46
2019-04-03T10:36:21.571Z,119.44
2019-04-03T10:37:21.545Z,76.20
2019-04-03T10:38:21.643Z,324.58
2019-04-03T10:39:21.569Z,196.05
2019-04-03T10:40:23.653Z,127.39
2019-04-03T10:41:21.611Z,102.12
2019-04-03T10:42:21.559Z,108.59
2019-04-03T10:43:21.552Z,218.14
2019-04-03T10:44:21.845Z,114.44
2019-04-03T10:45:21.572Z,91.89
2019-04-03T10:46:21.549Z,83.79
2019-04-03T10:47:25.284Z,148.97
2019-04-03T10:48:21.591Z,230.92
2019-04-03T10:49:21.645Z,134.11
2019-04-03T10:50:21.909Z,120.12
2019-04-03T10:51:21.930Z,113.40
2019-04-03T10:52:21.549Z,137.59
2019-04-03T10:53:21.836Z,147.64
2019-04-03T10:54:21.928Z,123.29
2019-04-03T10:55:21.560Z,100.76
2019-04-03T10:56:21.585Z,105.00
2019-04-03T10:57:21.792Z,100.89
2019-04-03T10:58:21.570Z,87.48
2019-04-03T10:59:21.574Z,76.10
2019-04-03T11:00:22.074Z,117.56
2019-04-03T11:01:21.581Z,95.12
2019-04-03T11:02:21.605Z,91.62
2019-04-03T11:03:21.757Z,92.39
2019-04-03T11:04:21.771Z,97.58
2019-04-03T11:05:21.588Z,99.89
2019-04-03T11:06:21.576Z,94.42
2019-04-03T11:07:21.568Z,91.97
2019-04-03T11:08:21.622Z,102.73
2019-04-03T11:09:21.667Z,95.74
2019-04-03T11:10:23.487Z,106.88
2019-04-03T11:11:21.579Z,112.43
2019-04-03T11:12:21.595Z,107.95
2019-04-03T11:13:21.588Z,111.26
2019-04-03T11:14:21.602Z,94.82
2019-04-03T11:15:21.653Z,102.24
2019-04-03T11:16:21.571Z,114.66
2019-04-03T11:17:21.956Z,123.07
2019-04-03T11:18:21.857Z,95.00
2019-04-03T11:19:21.593Z,117.59
2019-04-03T11:20:21.771Z,154.36
2019-04-03T11:21:21.614Z,138.58
2019-04-03T11:22:21.587Z,115.11
2019-04-03T11:23:36.051Z,109.99
2019-04-03T11:24:21.638Z,229.07
2019-04-03T11:25:21.689Z,109.03
2019-04-03T11:26:24.032Z,99.37
2019-04-03T11:27:25.061Z,80.29
2019-04-03T11:28:21.676Z,114.50
2019-04-03T11:29:21.612Z,128.00
2019-04-03T11:30:23.844Z,107.87
2019-04-03T11:31:26.657Z,92.83
2019-04-03T11:32:23.183Z,98.34
2019-04-03T11:33:21.606Z,127.28
2019-04-03T11:34:21.602Z,126.04
2019-04-03T11:35:22.397Z,108.78
2019-04-03T11:36:23.289Z,109.28
2019-04-03T11:37:21.828Z,116.88
2019-04-03T11:38:27.009Z,94.23
2019-04-03T11:39:21.952Z,127.59
2019-04-03T11:40:24.228Z,26.49
2019-04-03T11:41:23.513Z,94.89
2019-04-03T11:42:25.214Z,92.64
2019-04-03T11:43:21.917Z,138.41
2019-04-03T11:44:21.672Z,138.27
2019-04-03T11:45:21.644Z,96.84
2019-04-03T11:46:21.826Z,103.83
2019-04-03T11:47:21.674Z,120.68
2019-04-03T11:48:21.635Z,221.38
2019-04-03T11:49:21.642Z,239.71
2019-04-03T11:50:23.472Z,120.55
2019-04-03T11:51:21.642Z,72.80
2019-04-03T11:52:21.783Z,89.63
2019-04-03T11:53:21.676Z,83.43
2019-04-03T11:54:21.726Z,128.97
2019-04-03T11:55:21.662Z,146.45
2019-04-03T11:56:21.766Z,142.14
2019-04-03T11:57:21.833Z,88.54
2019-04-03T11:58:22.423Z,110.87
2019-04-03T11:59:23.711Z,103.57
2019-04-03T12:00:21.975Z,108.10
2019-04-03T12:01:21.856Z,94.39
2019-04-03T12:02:21.826Z,145.73
2019-04-03T12:03:21.983Z,124.39
2019-04-03T12:04:21.706Z,137.25
2019-04-03T12:05:21.700Z,104.91
2019-04-03T12:06:21.966Z,105.70
2019-04-03T12:07:22.856Z,91.60
2019-04-03T12:08:21.780Z,55.10
2019-04-03T12:09:21.706Z,109.42
2019-04-03T12:10:21.667Z,129.62
2019-04-03T12:11:21.700Z,141.17
2019-04-03T12:12:21.669Z,283.35
2019-04-03T12:13:21.990Z,99.30
2019-04-03T12:14:21.657Z,89.15
2019-04-03T12:15:22.291Z,98.01
2019-04-03T12:16:24.019Z,103.74
2019-04-03T12:17:21.712Z,87.58
2019-04-03T12:18:21.967Z,303.90
2019-04-03T12:19:21.648Z,120.84
2019-04-03T12:20:21.676Z,95.51
2019-04-03T12:21:21.731Z,138.92
2019-04-03T12:22:21.993Z,90.67
2019-04-03T12:23:21.687Z,91.51
2019-04-03T12:24:21.684Z,122.13
2019-04-03T12:25:21.651Z,99.33
2019-04-03T12:26:21.678Z,94.13
2019-04-03T12:27:21.711Z,70.75
2019-04-03T12:28:21.820Z,9.01
2019-04-03T12:29:22.727Z,67.57
2019-04-03T12:30:21.706Z,91.65
2019-04-03T12:31:21.659Z,101.93
2019-04-03T12:32:21.695Z,70.55
2019-04-03T12:33:21.901Z,109.62
2019-04-03T12:34:22.997Z,126.03
2019-04-03T12:35:21.783Z,354.13
2019-04-03T12:36:21.694Z,158.25
2019-04-03T12:37:24.188Z,190.62